createdAt,value
2019-03-10T00:01:36.492Z,7.30
2019-03-10T00:04:05.414Z,7.30
2019-03-10T00:06:34.116Z,7.30
2019-03-10T00:09:04.217Z,7.40
2019-03-10T00:11:32.969Z,7.40
2019-03-10T00:14:01.722Z,7.40
2019-03-10T00:16:30.500Z,7.40
2019-03-10T00:18:59.319Z,7.40
2019-03-10T00:21:28.106Z,7.50
2019-03-10T00:23:56.839Z,7.50
2019-03-10T00:26:25.562Z,7.50
2019-03-10T00:28:54.217Z,7.50
2019-03-10T00:31:23.138Z,7.50
2019-03-10T00:33:52.007Z,7.50
2019-03-10T00:36:20.861Z,7.60
2019-03-10T00:38:52.419Z,7.60
2019-03-10T00:41:23.947Z,7.60
2019-03-10T00:43:55.535Z,7.50
2019-03-10T00:46:27.096Z,7.60
2019-03-10T00:48:58.661Z,7.60
2019-03-10T00:51:30.158Z,7.50
2019-03-10T00:53:58.940Z,7.60
2019-03-10T00:56:27.689Z,7.50
2019-03-10T00:58:56.464Z,7.60
2019-03-10T01:01:25.155Z,7.50
2019-03-10T01:03:53.920Z,7.50
2019-03-10T01:06:23.831Z,7.50
2019-03-10T01:08:52.595Z,7.50
2019-03-10T01:11:21.538Z,7.50
2019-03-10T01:13:50.306Z,7.40
2019-03-10T01:16:21.939Z,7.40
2019-03-10T01:18:52.572Z,7.40
2019-03-10T01:21:21.924Z,7.40
2019-03-10T01:23:50.670Z,7.40
2019-03-10T01:26:19.455Z,7.40
2019-03-10T01:28:48.156Z,7.40
2019-03-10T01:31:19.898Z,7.40
2019-03-10T01:33:49.905Z,7.30
2019-03-10T01:39:02.438Z,7.30
2019-03-10T01:41:31.086Z,7.20
2019-03-10T01:43:59.800Z,7.30
2019-03-10T01:46:28.568Z,7.30
2019-03-10T01:48:57.425Z,7.30
2019-03-10T01:51:27.551Z,7.30
2019-03-10T01:53:56.270Z,7.30
2019-03-10T01:56:25.091Z,7.30
2019-03-10T01:58:53.711Z,7.20
2019-03-10T02:01:22.432Z,7.20
2019-03-10T02:03:51.153Z,7.20
2019-03-10T02:06:19.837Z,7.20
2019-03-10T02:08:48.516Z,7.30
2019-03-10T02:11:17.249Z,7.30
2019-03-10T02:13:45.942Z,7.20
2019-03-10T02:16:14.716Z,7.20
2019-03-10T02:18:43.465Z,7.20
2019-03-10T02:21:12.263Z,7.20
2019-03-10T02:23:41.050Z,7.10
2019-03-10T02:26:09.792Z,7.10
2019-03-10T02:28:38.524Z,7.10
2019-03-10T02:31:07.418Z,7.10
2019-03-10T02:33:36.148Z,7.10
2019-03-10T02:36:04.887Z,7.10
2019-03-10T02:38:33.524Z,7.10
2019-03-10T02:41:02.207Z,7.10
2019-03-10T02:43:30.869Z,7.10
2019-03-10T02:45:59.545Z,7.10
2019-03-10T02:48:28.396Z,7.10
2019-03-10T02:50:57.115Z,7.10
2019-03-10T02:53:25.931Z,7.10
2019-03-10T02:55:54.621Z,7.10
2019-03-10T02:58:23.757Z,7.10
2019-03-10T03:00:52.584Z,7.10
2019-03-10T03:03:21.364Z,7.10
2019-03-10T03:05:50.086Z,7.10
2019-03-10T03:08:18.871Z,7.10
2019-03-10T03:10:47.631Z,7.10
2019-03-10T03:13:16.448Z,7.10
2019-03-10T03:15:45.194Z,7.10
2019-03-10T03:18:13.941Z,7.20
2019-03-10T03:20:42.702Z,7.20
2019-03-10T03:23:11.338Z,7.20
2019-03-10T03:25:40.083Z,7.20
2019-03-10T03:28:08.808Z,7.20
2019-03-10T03:30:37.556Z,7.20
2019-03-10T03:33:07.308Z,7.20
2019-03-10T03:35:40.281Z,7.20
2019-03-10T03:38:08.946Z,7.20
2019-03-10T03:40:40.401Z,7.10
2019-03-10T03:43:09.227Z,7.10
2019-03-10T03:45:37.882Z,7.10
2019-03-10T03:48:06.717Z,7.10
2019-03-10T03:50:35.456Z,7.10
2019-03-10T03:53:04.366Z,7.00
2019-03-10T03:55:33.068Z,6.90
2019-03-10T03:58:01.852Z,6.80
2019-03-10T04:00:30.693Z,6.70
2019-03-10T04:02:59.408Z,6.60
2019-03-10T04:05:28.117Z,6.50
2019-03-10T04:07:56.907Z,6.50
2019-03-10T04:10:25.680Z,6.40
2019-03-10T04:12:54.440Z,6.40
2019-03-10T04:15:23.148Z,6.30
2019-03-10T04:17:51.993Z,6.30
2019-03-10T04:20:20.662Z,6.30
2019-03-10T04:22:49.452Z,6.30
2019-03-10T04:25:18.567Z,6.30
2019-03-10T04:27:47.865Z,6.30
2019-03-10T04:30:16.600Z,6.30
2019-03-10T04:32:45.261Z,6.20
2019-03-10T04:35:14.023Z,6.20
2019-03-10T04:37:42.752Z,6.20
2019-03-10T04:40:12.582Z,6.10
2019-03-10T04:42:41.353Z,6.10
2019-03-10T04:45:10.250Z,6.10
2019-03-10T04:47:38.925Z,6.00
2019-03-10T04:50:08.913Z,6.00
2019-03-10T04:52:37.630Z,6.00
2019-03-10T04:55:10.053Z,6.00
2019-03-10T04:57:40.430Z,6.00
2019-03-10T05:00:09.983Z,6.00
2019-03-10T05:02:38.692Z,5.90
2019-03-10T05:05:08.256Z,5.90
2019-03-10T05:07:36.909Z,5.90
2019-03-10T05:10:06.262Z,5.80
2019-03-10T05:12:35.056Z,5.80
2019-03-10T05:15:05.968Z,5.80
2019-03-10T05:17:34.668Z,5.80
2019-03-10T05:20:04.245Z,5.80
2019-03-10T05:22:33.003Z,5.70
2019-03-10T05:25:01.748Z,5.70
2019-03-10T05:27:30.403Z,5.70
2019-03-10T05:29:59.050Z,5.70
2019-03-10T05:32:27.863Z,5.70
2019-03-10T05:34:56.607Z,5.60
2019-03-10T05:37:26.654Z,5.70
2019-03-10T05:39:55.310Z,5.60
2019-03-10T05:42:24.033Z,5.60
2019-03-10T05:44:52.687Z,5.60
2019-03-10T05:47:21.452Z,5.60
2019-03-10T05:49:50.056Z,5.60
2019-03-10T05:52:18.635Z,5.60
2019-03-10T05:54:47.387Z,5.60
2019-03-10T05:57:17.744Z,5.60
2019-03-10T05:59:46.376Z,5.60
2019-03-10T06:02:15.112Z,5.50
2019-03-10T06:04:43.791Z,5.50
2019-03-10T06:07:12.449Z,5.50
2019-03-10T06:09:41.158Z,5.50
2019-03-10T06:12:09.807Z,5.50
2019-03-10T06:14:38.488Z,5.50
2019-03-10T06:17:07.282Z,5.50
2019-03-10T06:19:36.056Z,5.50
2019-03-10T06:22:04.794Z,5.50
2019-03-10T06:24:33.368Z,5.50
2019-03-10T06:27:02.179Z,5.50
2019-03-10T06:29:30.925Z,5.50
2019-03-10T06:32:00.029Z,5.50
2019-03-10T06:34:28.767Z,5.50
2019-03-10T06:36:57.455Z,5.40
2019-03-10T06:39:26.201Z,5.40
2019-03-10T06:41:57.234Z,5.40
2019-03-10T06:44:26.122Z,5.40
2019-03-10T06:46:54.973Z,5.40
2019-03-10T06:49:23.942Z,5.40
2019-03-10T06:51:52.773Z,5.40
2019-03-10T06:54:21.725Z,5.40
2019-03-10T06:56:50.513Z,5.40
2019-03-10T06:59:19.305Z,5.40
2019-03-10T07:01:47.972Z,5.40
2019-03-10T07:04:16.812Z,5.30
2019-03-10T07:06:45.409Z,5.40
2019-03-10T07:09:14.130Z,5.30
2019-03-10T07:11:42.862Z,5.20
2019-03-10T07:14:11.606Z,5.20
2019-03-10T07:16:40.339Z,5.20
2019-03-10T07:19:09.028Z,5.20
2019-03-10T07:21:37.746Z,5.20
2019-03-10T07:24:10.879Z,5.20
2019-03-10T07:26:41.712Z,5.30
2019-03-10T07:29:12.141Z,5.30
2019-03-10T07:31:42.701Z,5.30
2019-03-10T07:34:16.016Z,5.30
2019-03-10T07:36:45.770Z,5.40
2019-03-10T07:39:16.171Z,5.30
2019-03-10T07:41:46.455Z,5.30
2019-03-10T07:44:16.827Z,5.30
2019-03-10T07:46:45.567Z,5.30
2019-03-10T07:49:18.056Z,5.30
2019-03-10T07:51:47.922Z,5.30
2019-03-10T07:54:18.279Z,5.20
2019-03-10T07:56:50.792Z,5.20
2019-03-10T07:59:20.641Z,5.20
2019-03-10T08:01:51.001Z,5.10
2019-03-10T08:04:21.413Z,5.00
2019-03-10T08:06:51.858Z,5.00
2019-03-10T08:09:22.225Z,4.90
2019-03-10T08:11:52.084Z,5.00
2019-03-10T08:14:22.467Z,5.00
2019-03-10T08:16:52.748Z,5.00
2019-03-10T08:19:23.133Z,5.00
2019-03-10T08:21:53.455Z,5.00
2019-03-10T08:24:23.814Z,5.00
2019-03-10T08:26:54.229Z,5.10
2019-03-10T08:29:24.531Z,5.20
2019-03-10T08:31:54.971Z,5.20
2019-03-10T08:34:25.370Z,5.20
2019-03-10T08:36:55.720Z,5.10
2019-03-10T08:39:25.396Z,5.10
2019-03-10T08:41:55.736Z,5.10
2019-03-10T08:44:26.205Z,5.10
2019-03-10T08:46:56.546Z,5.00
2019-03-10T08:49:26.928Z,5.10
2019-03-10T08:51:57.203Z,5.10
2019-03-10T08:54:27.556Z,5.20
2019-03-10T08:56:57.915Z,5.20
2019-03-10T08:59:28.297Z,5.10
2019-03-10T09:01:58.603Z,5.10
2019-03-10T09:04:28.958Z,5.10
2019-03-10T09:06:59.302Z,5.00
2019-03-10T09:09:29.666Z,5.00
2019-03-10T09:12:00.042Z,5.00
2019-03-10T09:14:30.388Z,5.10
2019-03-10T09:17:00.752Z,5.30
2019-03-10T09:19:31.081Z,5.30
2019-03-10T09:22:01.492Z,5.30
2019-03-10T09:24:31.918Z,5.30
2019-03-10T09:27:02.265Z,5.30
2019-03-10T09:29:32.615Z,5.30
2019-03-10T09:32:02.986Z,5.40
2019-03-10T09:34:33.397Z,5.40
2019-03-10T09:37:03.689Z,5.40
2019-03-10T09:39:34.179Z,5.50
2019-03-10T09:42:02.849Z,5.50
2019-03-10T09:44:33.195Z,5.50
2019-03-10T09:47:03.518Z,5.50
2019-03-10T09:49:33.922Z,5.50
2019-03-10T09:52:04.511Z,5.70
2019-03-10T09:54:34.874Z,5.80
2019-03-10T09:57:05.205Z,5.80
2019-03-10T09:59:35.535Z,5.80
2019-03-10T10:02:06.011Z,6.00
2019-03-10T10:04:37.810Z,6.00
2019-03-10T10:07:08.217Z,6.10
2019-03-10T10:09:38.531Z,6.10
2019-03-10T10:12:13.434Z,6.20
2019-03-10T10:14:40.954Z,6.30
2019-03-10T10:17:15.371Z,6.50
2019-03-10T10:19:46.807Z,6.70
2019-03-10T10:22:18.698Z,6.70
2019-03-10T10:24:49.772Z,6.40
2019-03-10T10:27:20.339Z,6.40
2019-03-10T10:29:50.847Z,6.40
2019-03-10T10:32:21.235Z,6.40
2019-03-10T10:34:50.928Z,6.40
2019-03-10T10:37:21.282Z,6.60
2019-03-10T10:39:51.640Z,6.70
2019-03-10T10:42:21.445Z,6.70
2019-03-10T10:44:50.227Z,6.80
2019-03-10T10:47:20.602Z,6.90
2019-03-10T10:49:49.418Z,7.00
2019-03-10T10:52:19.831Z,7.10
2019-03-10T10:54:50.349Z,7.30
2019-03-10T10:57:21.934Z,7.60
2019-03-10T10:59:52.317Z,7.70
2019-03-10T11:02:22.689Z,7.80
2019-03-10T11:04:53.063Z,7.80
2019-03-10T11:07:23.441Z,7.80
2019-03-10T11:09:53.130Z,7.90
2019-03-10T11:12:21.845Z,7.90
2019-03-10T11:14:52.129Z,7.80
2019-03-10T11:17:21.904Z,7.90
2019-03-10T11:19:52.271Z,8.00
2019-03-10T11:22:24.412Z,8.30
2019-03-10T11:24:56.079Z,8.50
2019-03-10T11:27:26.536Z,8.70
2019-03-10T11:29:56.881Z,8.90
2019-03-10T11:32:27.382Z,9.10
2019-03-10T11:34:56.193Z,9.20
2019-03-10T11:37:26.567Z,9.30
2019-03-10T11:39:56.924Z,9.40
2019-03-10T11:42:27.311Z,9.80
2019-03-10T11:44:57.625Z,10.00
2019-03-10T11:47:28.003Z,10.10
2019-03-10T11:49:58.427Z,10.30
2019-03-10T11:52:28.835Z,10.60
2019-03-10T11:54:59.183Z,10.70
2019-03-10T11:57:29.675Z,10.80
2019-03-10T12:00:00.023Z,11.00
2019-03-10T12:02:28.873Z,11.20
2019-03-10T12:04:59.219Z,11.30
2019-03-10T12:07:29.641Z,11.40
2019-03-10T12:09:58.425Z,11.50
2019-03-10T12:12:28.575Z,11.70
2019-03-10T12:14:57.439Z,12.10
2019-03-10T12:17:26.435Z,12.20
2019-03-10T12:19:55.266Z,12.00
2019-03-10T12:22:24.124Z,11.60
2019-03-10T12:24:52.911Z,11.40
2019-03-10T12:27:21.692Z,10.60
2019-03-10T12:29:50.620Z,10.00
2019-03-10T12:32:19.585Z,10.00
2019-03-10T12:34:48.399Z,10.10
2019-03-10T12:37:17.114Z,10.20
2019-03-10T12:39:45.929Z,10.40
2019-03-10T12:42:14.711Z,10.50
2019-03-10T12:44:43.546Z,10.60
2019-03-10T12:47:12.346Z,10.70
2019-03-10T12:49:41.167Z,10.80
2019-03-10T12:52:10.333Z,11.10
2019-03-10T12:54:39.073Z,11.30
2019-03-10T12:57:07.848Z,11.20
2019-03-10T12:59:36.793Z,11.10
2019-03-10T13:02:05.611Z,11.00
2019-03-10T13:04:34.546Z,10.90
2019-03-10T13:07:03.293Z,10.80
2019-03-10T13:09:32.110Z,10.70
2019-03-10T13:12:00.930Z,10.70
2019-03-10T13:14:30.929Z,10.80
2019-03-10T13:17:00.195Z,11.00
2019-03-10T13:19:28.908Z,11.20
2019-03-10T13:21:57.665Z,11.40
2019-03-10T13:24:26.447Z,11.40
2019-03-10T13:26:55.220Z,11.30
2019-03-10T13:29:24.117Z,11.30
2019-03-10T13:31:52.917Z,11.50
2019-03-10T13:34:21.766Z,11.40
2019-03-10T13:36:50.583Z,11.30
2019-03-10T13:39:19.467Z,11.20
2019-03-10T13:41:48.307Z,11.00
2019-03-10T13:44:17.125Z,10.80
2019-03-10T13:46:45.998Z,10.40
2019-03-10T13:49:14.843Z,10.20
2019-03-10T13:51:43.728Z,9.90
2019-03-10T13:54:12.579Z,9.70
2019-03-10T13:56:41.345Z,9.60
2019-03-10T13:59:10.312Z,9.70
2019-03-10T14:01:39.104Z,9.90
2019-03-10T14:04:08.289Z,10.30
2019-03-10T14:06:37.158Z,11.10
2019-03-10T14:09:08.272Z,11.20
2019-03-10T14:11:37.073Z,11.20
2019-03-10T14:14:05.887Z,11.50
2019-03-10T14:16:34.853Z,11.60
2019-03-10T14:19:03.627Z,11.90
2019-03-10T14:21:32.592Z,12.00
2019-03-10T14:24:01.439Z,11.20
2019-03-10T14:26:30.203Z,10.80
2019-03-10T14:28:58.961Z,10.60
2019-03-10T14:31:28.047Z,10.50
2019-03-10T14:33:57.238Z,10.30
2019-03-10T14:36:26.264Z,10.10
2019-03-10T14:38:55.109Z,10.00
2019-03-10T14:41:26.853Z,10.00
2019-03-10T14:43:55.673Z,9.80
2019-03-10T14:46:24.519Z,9.80
2019-03-10T14:48:53.660Z,9.70
2019-03-10T14:51:22.683Z,9.50
2019-03-10T14:53:51.468Z,9.50
2019-03-10T14:56:20.411Z,9.30
2019-03-10T14:58:49.295Z,9.30
2019-03-10T15:01:18.047Z,9.20
2019-03-10T15:03:46.909Z,9.10
2019-03-10T15:06:15.779Z,9.00
2019-03-10T15:08:46.427Z,8.80
2019-03-10T15:11:15.124Z,8.70
2019-03-10T15:13:44.839Z,8.70
2019-03-10T15:16:13.612Z,8.60
2019-03-10T15:18:42.402Z,8.60
2019-03-10T15:21:11.267Z,8.60
2019-03-10T15:23:40.549Z,8.60
2019-03-10T15:26:09.486Z,8.50
2019-03-10T15:28:38.322Z,8.50
2019-03-10T15:31:07.478Z,8.50
2019-03-10T15:33:36.273Z,8.40
2019-03-10T15:36:05.098Z,8.50
2019-03-10T15:38:36.224Z,8.40
2019-03-10T15:41:05.066Z,8.40
2019-03-10T15:43:33.780Z,8.40
2019-03-10T15:46:02.511Z,8.40
2019-03-10T15:48:31.388Z,8.40
2019-03-10T15:51:00.362Z,8.30
2019-03-10T15:53:29.213Z,8.30
2019-03-10T15:55:57.987Z,8.20
2019-03-10T15:58:26.910Z,8.20
2019-03-10T16:00:55.624Z,8.20
2019-03-10T16:03:24.582Z,8.20
2019-03-10T16:05:53.334Z,8.20
2019-03-10T16:08:22.174Z,8.20
2019-03-10T16:10:50.980Z,8.10
2019-03-10T16:13:19.815Z,8.10
2019-03-10T16:15:48.795Z,8.00
2019-03-10T16:18:18.020Z,8.00
2019-03-10T16:20:46.826Z,8.00
2019-03-10T16:23:15.704Z,7.90
2019-03-10T16:25:44.451Z,7.90
2019-03-10T16:28:13.262Z,7.80
2019-03-10T16:30:42.461Z,7.70
2019-03-10T16:33:11.500Z,7.50
2019-03-10T16:35:40.365Z,7.30
2019-03-10T16:38:09.236Z,7.10
2019-03-10T16:40:38.051Z,6.80
2019-03-10T16:43:06.871Z,6.20
2019-03-10T16:45:35.715Z,5.60
2019-03-10T16:48:04.796Z,5.20
2019-03-10T16:50:34.612Z,4.90
2019-03-10T16:53:03.482Z,4.70
2019-03-10T16:55:32.238Z,4.50
2019-03-10T16:58:01.003Z,4.40
2019-03-10T17:00:29.875Z,4.30
2019-03-10T17:02:58.750Z,4.30
2019-03-10T17:05:27.608Z,4.20
2019-03-10T17:07:56.323Z,4.20
2019-03-10T17:10:26.332Z,4.10
2019-03-10T17:12:55.419Z,4.00
2019-03-10T17:15:25.278Z,4.00
2019-03-10T17:17:54.702Z,3.90
2019-03-10T17:20:23.516Z,3.90
2019-03-10T17:22:52.306Z,3.90
2019-03-10T17:25:21.252Z,3.90
2019-03-10T17:27:50.017Z,3.90
2019-03-10T17:30:20.339Z,3.80
2019-03-10T17:32:49.444Z,3.80
2019-03-10T17:35:19.062Z,3.80
2019-03-10T17:37:48.698Z,3.80
2019-03-10T17:40:19.978Z,3.70
2019-03-10T17:42:48.819Z,3.70
2019-03-10T17:45:18.921Z,3.70
2019-03-10T17:47:48.015Z,3.70
2019-03-10T17:50:18.049Z,3.60
2019-03-10T17:52:47.370Z,3.60
2019-03-10T17:55:17.892Z,3.60
2019-03-10T17:57:46.779Z,3.60
2019-03-10T18:00:18.717Z,3.60
2019-03-10T18:02:47.814Z,3.60
2019-03-10T18:05:16.517Z,3.60
2019-03-10T18:07:45.383Z,3.60
2019-03-10T18:10:16.357Z,3.60
2019-03-10T18:12:45.232Z,3.50
2019-03-10T18:15:16.105Z,3.50
2019-03-10T18:17:45.169Z,3.50
2019-03-10T18:20:16.009Z,3.50
2019-03-10T18:22:44.968Z,3.50
2019-03-10T18:25:14.867Z,3.50
2019-03-10T18:27:43.629Z,3.50
2019-03-10T18:30:15.649Z,3.50
2019-03-10T18:32:44.631Z,3.60
2019-03-10T18:35:13.519Z,3.60
2019-03-10T18:37:42.261Z,3.60
2019-03-10T18:40:14.279Z,3.60
2019-03-10T18:42:43.149Z,3.60
2019-03-10T18:45:14.434Z,3.60
2019-03-10T18:47:43.546Z,3.60
2019-03-10T18:50:15.188Z,3.70
2019-03-10T18:52:44.358Z,3.60
2019-03-10T18:55:15.130Z,3.70
2019-03-10T18:57:44.222Z,3.70
2019-03-10T19:00:16.086Z,3.70
2019-03-10T19:02:46.265Z,3.80
2019-03-10T19:05:15.120Z,3.80
2019-03-10T19:07:44.077Z,3.80
2019-03-10T19:10:14.259Z,3.90
2019-03-10T19:12:43.137Z,3.90
2019-03-10T19:15:14.708Z,3.90
2019-03-10T19:17:43.430Z,3.90
2019-03-10T19:20:13.934Z,3.90
2019-03-10T19:22:43.112Z,3.80
2019-03-10T19:25:13.975Z,3.70
2019-03-10T19:27:42.697Z,3.60
2019-03-10T19:30:14.620Z,3.50
2019-03-10T19:32:43.731Z,3.40
2019-03-10T19:35:13.172Z,3.30
2019-03-10T19:37:42.253Z,3.30
2019-03-10T19:40:13.773Z,3.30
2019-03-10T19:42:42.673Z,3.30
2019-03-10T19:45:14.246Z,3.20
2019-03-10T19:47:43.065Z,3.20
2019-03-10T19:50:14.148Z,3.20
2019-03-10T19:52:43.039Z,3.30
2019-03-10T19:55:13.982Z,3.30
2019-03-10T19:57:42.725Z,3.40
2019-03-10T20:00:14.382Z,3.40
2019-03-10T20:02:43.212Z,3.40
2019-03-10T20:05:12.563Z,3.40
2019-03-10T20:07:41.430Z,3.30
2019-03-10T20:10:13.287Z,3.30
2019-03-10T20:12:42.312Z,3.30
2019-03-10T20:15:13.686Z,3.20
2019-03-10T20:17:42.655Z,3.20
2019-03-10T20:20:13.477Z,3.20
2019-03-10T20:22:42.283Z,3.10
2019-03-10T20:25:13.159Z,3.10
2019-03-10T20:27:41.982Z,3.00
2019-03-10T20:30:13.941Z,3.00
2019-03-10T20:32:42.732Z,2.90
2019-03-10T20:35:11.609Z,2.90
2019-03-10T20:37:40.498Z,2.80
2019-03-10T20:40:12.039Z,2.80
2019-03-10T20:42:40.805Z,2.80
2019-03-10T20:45:10.819Z,2.80
2019-03-10T20:47:39.702Z,2.90
2019-03-10T20:50:11.601Z,3.00
2019-03-10T20:52:40.422Z,3.10
2019-03-10T20:55:10.995Z,3.10
2019-03-10T20:57:39.883Z,3.20
2019-03-10T21:00:11.690Z,3.10
2019-03-10T21:02:40.474Z,3.00
2019-03-10T21:05:11.387Z,2.90
2019-03-10T21:07:40.190Z,2.80
2019-03-10T21:10:11.746Z,2.80
2019-03-10T21:12:42.697Z,2.80
2019-03-10T21:15:13.762Z,2.80
2019-03-10T21:17:42.620Z,2.80
2019-03-10T21:20:13.794Z,2.80
2019-03-10T21:22:42.639Z,2.80
2019-03-10T21:25:14.268Z,2.90
2019-03-10T21:27:43.107Z,2.90
2019-03-10T21:30:15.033Z,2.80
2019-03-10T21:32:43.925Z,2.70
2019-03-10T21:35:17.657Z,2.70
2019-03-10T21:37:43.237Z,2.70
2019-03-10T21:40:14.503Z,2.60
2019-03-10T21:42:43.251Z,2.60
2019-03-10T21:45:12.198Z,2.60
2019-03-10T21:47:40.935Z,2.60
2019-03-10T21:50:12.394Z,2.60
2019-03-10T21:52:41.127Z,2.50
2019-03-10T21:55:11.947Z,2.50
2019-03-10T21:57:40.863Z,2.60
2019-03-10T22:00:12.368Z,2.50
2019-03-10T22:02:41.066Z,2.50
2019-03-10T22:05:11.811Z,2.50
2019-03-10T22:07:40.604Z,2.40
2019-03-10T22:10:12.171Z,2.40
2019-03-10T22:12:40.889Z,2.40
2019-03-10T22:15:12.191Z,2.30
2019-03-10T22:17:40.983Z,2.30
2019-03-10T22:20:12.274Z,2.40
2019-03-10T22:22:48.259Z,2.50
2019-03-10T22:25:13.466Z,2.50
2019-03-10T22:27:45.291Z,2.60
2019-03-10T22:30:15.722Z,2.60
2019-03-10T22:32:44.654Z,2.60
2019-03-10T22:35:13.763Z,2.60
2019-03-10T22:37:42.521Z,2.60
2019-03-10T22:40:14.000Z,2.50
2019-03-10T22:42:42.812Z,2.50
2019-03-10T22:45:14.147Z,2.50
2019-03-10T22:47:43.172Z,2.60
2019-03-10T22:50:14.017Z,2.60
2019-03-10T22:52:43.458Z,2.60
2019-03-10T22:55:13.551Z,2.50
2019-03-10T22:57:43.437Z,2.50
2019-03-10T23:00:15.056Z,2.50
2019-03-10T23:02:43.861Z,2.50
2019-03-10T23:05:12.742Z,2.50
2019-03-10T23:07:41.398Z,2.50
2019-03-10T23:10:12.697Z,2.40
2019-03-10T23:12:41.462Z,2.40
2019-03-10T23:15:12.323Z,2.40
2019-03-10T23:17:41.082Z,2.40
2019-03-10T23:20:12.655Z,2.40
2019-03-10T23:22:41.478Z,2.30
2019-03-10T23:25:10.604Z,2.40
2019-03-10T23:27:39.403Z,2.40
2019-03-10T23:30:11.302Z,2.40
2019-03-10T23:32:40.734Z,2.40
2019-03-10T23:35:10.972Z,2.40
2019-03-10T23:37:39.702Z,2.40
2019-03-10T23:40:12.022Z,2.30
2019-03-10T23:42:41.000Z,2.40
2019-03-10T23:45:12.672Z,2.40
2019-03-10T23:47:41.393Z,2.50
2019-03-10T23:50:12.620Z,2.40
2019-03-10T23:52:41.451Z,2.50
2019-03-10T23:55:11.781Z,2.50
2019-03-10T23:57:40.600Z,2.50
